sensor_id;sensor_type;location;lat;lon;timestamp;P1;durP1;ratioP1;P2;durP2;ratioP2
23594;SDS011;11975;47.674;9.472;2023-06-22T00:01:55;22.45;;;21.05;;
23594;SDS011;11975;47.674;9.472;2023-06-22T00:04:21;23.15;;;21.75;;
23594;SDS011;11975;47.674;9.472;2023-06-22T00:06:47;22.08;;;20.85;;
23594;SDS011;11975;47.674;9.472;2023-06-22T00:09:13;23.77;;;22.38;;
23594;SDS011;11975;47.674;9.472;2023-06-22T00:11:39;22.83;;;21.52;;
23594;SDS011;11975;47.674;9.472;2023-06-22T00:14:05;22.55;;;21.27;;
23594;SDS011;11975;47.674;9.472;2023-06-22T00:16:31;23.43;;;21.83;;
23594;SDS011;11975;47.674;9.472;2023-06-22T00:18:57;23.23;;;21.88;;
23594;SDS011;11975;47.674;9.472;2023-06-22T00:21:26;23.65;;;22.20;;
23594;SDS011;11975;47.674;9.472;2023-06-22T00:23:52;22.73;;;21.42;;
23594;SDS011;11975;47.674;9.472;2023-06-22T00:26:19;23.60;;;22.20;;
23594;SDS011;11975;47.674;9.472;2023-06-22T00:28:45;23.33;;;21.92;;
23594;SDS011;11975;47.674;9.472;2023-06-22T00:31:11;22.55;;;21.25;;
23594;SDS011;11975;47.674;9.472;2023-06-22T00:33:37;22.33;;;21.05;;
23594;SDS011;11975;47.674;9.472;2023-06-22T00:36:03;23.35;;;22.02;;
23594;SDS011;11975;47.674;9.472;2023-06-22T00:38:29;23.75;;;22.38;;
23594;SDS011;11975;47.674;9.472;2023-06-22T00:40:55;23.73;;;22.33;;
23594;SDS011;11975;47.674;9.472;2023-06-22T00:43:21;25.25;;;23.40;;
23594;SDS011;11975;47.674;9.472;2023-06-22T00:45:46;25.10;;;23.45;;
23594;SDS011;11975;47.674;9.472;2023-06-22T00:48:13;24.20;;;22.80;;
23594;SDS011;11975;47.674;9.472;2023-06-22T00:50:39;24.08;;;22.58;;
23594;SDS011;11975;47.674;9.472;2023-06-22T00:53:06;24.70;;;23.23;;
23594;SDS011;11975;47.674;9.472;2023-06-22T00:55:43;24.73;;;23.30;;
23594;SDS011;11975;47.674;9.472;2023-06-22T00:58:11;24.27;;;22.83;;
23594;SDS011;11975;47.674;9.472;2023-06-22T01:00:37;24.30;;;22.80;;
23594;SDS011;11975;47.674;9.472;2023-06-22T01:03:04;24.13;;;22.67;;
23594;SDS011;11975;47.674;9.472;2023-06-22T01:05:34;24.23;;;22.83;;
23594;SDS011;11975;47.674;9.472;2023-06-22T01:10:47;26.33;;;24.55;;
23594;SDS011;11975;47.674;9.472;2023-06-22T01:13:50;23.73;;;22.38;;
23594;SDS011;11975;47.674;9.472;2023-06-22T01:16:23;25.35;;;23.75;;
23594;SDS011;11975;47.674;9.472;2023-06-22T01:18:52;23.77;;;22.40;;
23594;SDS011;11975;47.674;9.472;2023-06-22T01:21:20;24.40;;;23.00;;
23594;SDS011;11975;47.674;9.472;2023-06-22T01:26:57;26.50;;;24.77;;
23594;SDS011;11975;47.674;9.472;2023-06-22T01:29:28;25.95;;;24.40;;
23594;SDS011;11975;47.674;9.472;2023-06-22T01:31:54;25.77;;;24.25;;
23594;SDS011;11975;47.674;9.472;2023-06-22T01:34:22;26.25;;;24.70;;
23594;SDS011;11975;47.674;9.472;2023-06-22T01:39:14;24.43;;;23.03;;
23594;SDS011;11975;47.674;9.472;2023-06-22T01:41:41;24.98;;;23.55;;
23594;SDS011;11975;47.674;9.472;2023-06-22T01:46:34;24.23;;;22.83;;
23594;SDS011;11975;47.674;9.472;2023-06-22T01:49:01;25.45;;;23.95;;
23594;SDS011;11975;47.674;9.472;2023-06-22T01:51:28;25.65;;;24.15;;
23594;SDS011;11975;47.674;9.472;2023-06-22T01:53:54;26.48;;;24.75;;
23594;SDS011;11975;47.674;9.472;2023-06-22T01:56:20;25.55;;;24.08;;
23594;SDS011;11975;47.674;9.472;2023-06-22T02:01:45;25.52;;;23.95;;
23594;SDS011;11975;47.674;9.472;2023-06-22T02:04:19;26.10;;;24.60;;
23594;SDS011;11975;47.674;9.472;2023-06-22T02:06:47;26.77;;;25.13;;
23594;SDS011;11975;47.674;9.472;2023-06-22T02:09:17;25.33;;;23.88;;
23594;SDS011;11975;47.674;9.472;2023-06-22T02:11:45;25.27;;;23.88;;
23594;SDS011;11975;47.674;9.472;2023-06-22T02:14:12;25.00;;;23.58;;
23594;SDS011;11975;47.674;9.472;2023-06-22T02:16:38;25.75;;;24.25;;
23594;SDS011;11975;47.674;9.472;2023-06-22T02:19:04;25.10;;;23.60;;
23594;SDS011;11975;47.674;9.472;2023-06-22T02:21:31;25.13;;;23.65;;
23594;SDS011;11975;47.674;9.472;2023-06-22T02:23:58;26.25;;;24.45;;
23594;SDS011;11975;47.674;9.472;2023-06-22T02:26:24;25.00;;;23.50;;
23594;SDS011;11975;47.674;9.472;2023-06-22T02:28:51;25.38;;;23.90;;
23594;SDS011;11975;47.674;9.472;2023-06-22T02:31:17;26.15;;;24.55;;
23594;SDS011;11975;47.674;9.472;2023-06-22T02:33:43;25.63;;;24.13;;
23594;SDS011;11975;47.674;9.472;2023-06-22T02:36:10;25.85;;;24.35;;
23594;SDS011;11975;47.674;9.472;2023-06-22T02:38:40;25.33;;;23.73;;
23594;SDS011;11975;47.674;9.472;2023-06-22T02:41:14;25.10;;;23.65;;
23594;SDS011;11975;47.674;9.472;2023-06-22T02:43:46;26.88;;;25.27;;
23594;SDS011;11975;47.674;9.472;2023-06-22T02:46:12;25.70;;;24.20;;
23594;SDS011;11975;47.674;9.472;2023-06-22T02:48:39;25.58;;;24.15;;
23594;SDS011;11975;47.674;9.472;2023-06-22T02:51:05;25.65;;;24.13;;
23594;SDS011;11975;47.674;9.472;2023-06-22T02:53:32;25.88;;;24.27;;
23594;SDS011;11975;47.674;9.472;2023-06-22T02:55:58;25.20;;;23.75;;
23594;SDS011;11975;47.674;9.472;2023-06-22T02:58:25;26.90;;;25.30;;
23594;SDS011;11975;47.674;9.472;2023-06-22T03:00:51;27.10;;;25.17;;
23594;SDS011;11975;47.674;9.472;2023-06-22T03:03:19;26.95;;;25.35;;
23594;SDS011;11975;47.674;9.472;2023-06-22T03:05:45;26.45;;;24.95;;
23594;SDS011;11975;47.674;9.472;2023-06-22T03:08:11;26.33;;;24.80;;
23594;SDS011;11975;47.674;9.472;2023-06-22T03:10:37;26.83;;;25.10;;
23594;SDS011;11975;47.674;9.472;2023-06-22T03:13:03;25.92;;;24.42;;
23594;SDS011;11975;47.674;9.472;2023-06-22T03:15:29;26.63;;;25.13;;
23594;SDS011;11975;47.674;9.472;2023-06-22T03:17:56;27.33;;;25.42;;
23594;SDS011;11975;47.674;9.472;2023-06-22T03:20:22;26.55;;;24.95;;
23594;SDS011;11975;47.674;9.472;2023-06-22T03:22:48;26.10;;;24.40;;
23594;SDS011;11975;47.674;9.472;2023-06-22T03:25:14;26.25;;;24.65;;
23594;SDS011;11975;47.674;9.472;2023-06-22T03:27:41;25.85;;;24.35;;
23594;SDS011;11975;47.674;9.472;2023-06-22T03:30:08;26.73;;;25.23;;
23594;SDS011;11975;47.674;9.472;2023-06-22T03:32:36;26.55;;;24.85;;
23594;SDS011;11975;47.674;9.472;2023-06-22T03:35:02;25.73;;;24.27;;
23594;SDS011;11975;47.674;9.472;2023-06-22T03:37:28;1013.50;;;512.70;;
23594;SDS011;11975;47.674;9.472;2023-06-22T03:39:54;1999.90;;;999.90;;
23594;SDS011;11975;47.674;9.472;2023-06-22T03:42:20;1013.08;;;512.33;;
23594;SDS011;11975;47.674;9.472;2023-06-22T03:44:46;1999.90;;;999.90;;
23594;SDS011;11975;47.674;9.472;2023-06-22T03:47:12;1999.90;;;999.90;;
23594;SDS011;11975;47.674;9.472;2023-06-22T03:49:39;1999.90;;;999.90;;
23594;SDS011;11975;47.674;9.472;2023-06-22T03:52:05;1999.90;;;999.90;;
23594;SDS011;11975;47.674;9.472;2023-06-22T03:54:31;1999.90;;;999.90;;
23594;SDS011;11975;47.674;9.472;2023-06-22T03:56:57;1999.90;;;999.90;;
23594;SDS011;11975;47.674;9.472;2023-06-22T03:59:24;1999.90;;;999.90;;
23594;SDS011;11975;47.674;9.472;2023-06-22T04:01:50;24.52;;;23.13;;
23594;SDS011;11975;47.674;9.472;2023-06-22T04:04:19;24.93;;;23.43;;
23594;SDS011;11975;47.674;9.472;2023-06-22T04:06:45;24.42;;;23.02;;
23594;SDS011;11975;47.674;9.472;2023-06-22T04:09:11;24.30;;;22.90;;
23594;SDS011;11975;47.674;9.472;2023-06-22T04:11:37;25.30;;;23.80;;
23594;SDS011;11975;47.674;9.472;2023-06-22T04:14:03;24.20;;;22.75;;
23594;SDS011;11975;47.674;9.472;2023-06-22T04:16:29;25.15;;;23.65;;
23594;SDS011;11975;47.674;9.472;2023-06-22T04:18:55;25.38;;;23.83;;
23594;SDS011;11975;47.674;9.472;2023-06-22T04:21:21;26.88;;;25.25;;
23594;SDS011;11975;47.674;9.472;2023-06-22T04:23:47;26.10;;;24.60;;
23594;SDS011;11975;47.674;9.472;2023-06-22T04:26:13;25.20;;;23.70;;
23594;SDS011;11975;47.674;9.472;2023-06-22T04:28:40;25.08;;;23.67;;
23594;SDS011;11975;47.674;9.472;2023-06-22T04:31:06;25.65;;;24.17;;
23594;SDS011;11975;47.674;9.472;2023-06-22T04:33:32;26.15;;;24.55;;
23594;SDS011;11975;47.674;9.472;2023-06-22T04:35:58;24.92;;;23.42;;
23594;SDS011;11975;47.674;9.472;2023-06-22T04:38:26;26.23;;;24.70;;
23594;SDS011;11975;47.674;9.472;2023-06-22T04:40:52;26.13;;;24.43;;
23594;SDS011;11975;47.674;9.472;2023-06-22T04:43:19;25.92;;;24.38;;
23594;SDS011;11975;47.674;9.472;2023-06-22T04:45:45;24.08;;;22.63;;
23594;SDS011;11975;47.674;9.472;2023-06-22T04:48:11;22.75;;;21.35;;
23594;SDS011;11975;47.674;9.472;2023-06-22T04:50:41;23.67;;;22.27;;
23594;SDS011;11975;47.674;9.472;2023-06-22T04:53:07;23.70;;;21.88;;
23594;SDS011;11975;47.674;9.472;2023-06-22T04:55:35;22.55;;;21.15;;
23594;SDS011;11975;47.674;9.472;2023-06-22T04:58:03;22.42;;;20.98;;
23594;SDS011;11975;47.674;9.472;2023-06-22T05:00:30;22.65;;;21.25;;
23594;SDS011;11975;47.674;9.472;2023-06-22T05:02:56;23.70;;;22.30;;
23594;SDS011;11975;47.674;9.472;2023-06-22T05:05:23;22.45;;;21.05;;
23594;SDS011;11975;47.674;9.472;2023-06-22T05:07:50;22.63;;;21.23;;
23594;SDS011;11975;47.674;9.472;2023-06-22T05:10:18;21.65;;;20.45;;
23594;SDS011;11975;47.674;9.472;2023-06-22T05:12:45;22.95;;;21.55;;
23594;SDS011;11975;47.674;9.472;2023-06-22T05:15:12;22.23;;;20.92;;
23594;SDS011;11975;47.674;9.472;2023-06-22T05:17:38;22.00;;;20.70;;
23594;SDS011;11975;47.674;9.472;2023-06-22T05:20:12;21.08;;;19.77;;
23594;SDS011;11975;47.674;9.472;2023-06-22T05:22:38;22.08;;;20.77;;
23594;SDS011;11975;47.674;9.472;2023-06-22T05:25:08;22.13;;;20.85;;
23594;SDS011;11975;47.674;9.472;2023-06-22T05:27:35;23.17;;;21.77;;
23594;SDS011;11975;47.674;9.472;2023-06-22T05:30:08;22.17;;;20.88;;
23594;SDS011;11975;47.674;9.472;2023-06-22T05:32:34;22.55;;;21.08;;
23594;SDS011;11975;47.674;9.472;2023-06-22T05:35:01;20.92;;;19.73;;
23594;SDS011;11975;47.674;9.472;2023-06-22T05:39:54;21.17;;;19.98;;
23594;SDS011;11975;47.674;9.472;2023-06-22T05:42:21;20.85;;;19.65;;
23594;SDS011;11975;47.674;9.472;2023-06-22T05:44:47;21.38;;;19.63;;
23594;SDS011;11975;47.674;9.472;2023-06-22T05:47:13;20.90;;;19.60;;
23594;SDS011;11975;47.674;9.472;2023-06-22T05:49:39;20.60;;;19.37;;
23594;SDS011;11975;47.674;9.472;2023-06-22T05:52:05;20.55;;;19.23;;
23594;SDS011;11975;47.674;9.472;2023-06-22T05:54:31;20.23;;;19.13;;
23594;SDS011;11975;47.674;9.472;2023-06-22T05:56:57;20.80;;;19.60;;
23594;SDS011;11975;47.674;9.472;2023-06-22T05:59:23;20.77;;;19.57;;
23594;SDS011;11975;47.674;9.472;2023-06-22T06:01:49;21.23;;;19.93;;
23594;SDS011;11975;47.674;9.472;2023-06-22T06:04:16;21.15;;;19.85;;
23594;SDS011;11975;47.674;9.472;2023-06-22T06:06:43;21.33;;;19.88;;
23594;SDS011;11975;47.674;9.472;2023-06-22T06:09:09;20.40;;;19.20;;
23594;SDS011;11975;47.674;9.472;2023-06-22T06:11:37;20.70;;;19.50;;
23594;SDS011;11975;47.674;9.472;2023-06-22T06:14:03;20.27;;;19.08;;
23594;SDS011;11975;47.674;9.472;2023-06-22T06:16:29;21.60;;;20.10;;
23594;SDS011;11975;47.674;9.472;2023-06-22T06:18:55;20.37;;;19.17;;
23594;SDS011;11975;47.674;9.472;2023-06-22T06:21:22;20.40;;;19.05;;
23594;SDS011;11975;47.674;9.472;2023-06-22T06:23:48;19.83;;;18.73;;
23594;SDS011;11975;47.674;9.472;2023-06-22T06:26:14;20.87;;;19.47;;
23594;SDS011;11975;47.674;9.472;2023-06-22T06:28:42;19.42;;;18.33;;
23594;SDS011;11975;47.674;9.472;2023-06-22T06:31:09;20.70;;;19.33;;
23594;SDS011;11975;47.674;9.472;2023-06-22T06:33:35;19.92;;;18.73;;
23594;SDS011;11975;47.674;9.472;2023-06-22T06:36:02;20.33;;;18.90;;
23594;SDS011;11975;47.674;9.472;2023-06-22T06:38:29;21.35;;;19.95;;
23594;SDS011;11975;47.674;9.472;2023-06-22T06:40:56;19.65;;;18.48;;
23594;SDS011;11975;47.674;9.472;2023-06-22T06:43:22;20.52;;;19.33;;
23594;SDS011;11975;47.674;9.472;2023-06-22T06:45:49;20.20;;;19.00;;
23594;SDS011;11975;47.674;9.472;2023-06-22T06:48:15;20.30;;;19.17;;
23594;SDS011;11975;47.674;9.472;2023-06-22T06:50:41;22.03;;;20.30;;
23594;SDS011;11975;47.674;9.472;2023-06-22T06:53:09;20.63;;;19.42;;
23594;SDS011;11975;47.674;9.472;2023-06-22T06:55:35;20.05;;;18.85;;
23594;SDS011;11975;47.674;9.472;2023-06-22T06:58:02;21.13;;;19.93;;
23594;SDS011;11975;47.674;9.472;2023-06-22T07:00:29;19.73;;;18.63;;
23594;SDS011;11975;47.674;9.472;2023-06-22T07:02:55;20.07;;;18.87;;
23594;SDS011;11975;47.674;9.472;2023-06-22T07:05:21;19.73;;;18.60;;
23594;SDS011;11975;47.674;9.472;2023-06-22T07:07:47;21.37;;;20.07;;
23594;SDS011;11975;47.674;9.472;2023-06-22T07:15:07;23.60;;;21.77;;
23594;SDS011;11975;47.674;9.472;2023-06-22T07:17:34;20.23;;;19.02;;
23594;SDS011;11975;47.674;9.472;2023-06-22T07:20:04;19.77;;;18.67;;
23594;SDS011;11975;47.674;9.472;2023-06-22T07:22:38;19.85;;;18.73;;
23594;SDS011;11975;47.674;9.472;2023-06-22T07:25:04;19.83;;;18.60;;
23594;SDS011;11975;47.674;9.472;2023-06-22T07:27:38;19.10;;;17.92;;
23594;SDS011;11975;47.674;9.472;2023-06-22T07:30:08;18.80;;;17.65;;
23594;SDS011;11975;47.674;9.472;2023-06-22T07:32:35;18.65;;;17.55;;
23594;SDS011;11975;47.674;9.472;2023-06-22T07:35:01;19.50;;;18.08;;
23594;SDS011;11975;47.674;9.472;2023-06-22T07:37:28;19.17;;;18.08;;
23594;SDS011;11975;47.674;9.472;2023-06-22T07:42:26;19.58;;;18.38;;
23594;SDS011;11975;47.674;9.472;2023-06-22T07:44:52;19.10;;;17.90;;
23594;SDS011;11975;47.674;9.472;2023-06-22T07:49:45;19.10;;;17.90;;
23594;SDS011;11975;47.674;9.472;2023-06-22T07:52:13;17.42;;;16.42;;
23594;SDS011;11975;47.674;9.472;2023-06-22T07:54:39;18.92;;;17.48;;
23594;SDS011;11975;47.674;9.472;2023-06-22T07:57:05;18.25;;;17.20;;
23594;SDS011;11975;47.674;9.472;2023-06-22T07:59:31;18.38;;;17.25;;
23594;SDS011;11975;47.674;9.472;2023-06-22T08:01:57;17.50;;;16.50;;
23594;SDS011;11975;47.674;9.472;2023-06-22T08:04:26;19.35;;;18.02;;
23594;SDS011;11975;47.674;9.472;2023-06-22T08:06:54;17.67;;;16.67;;
23594;SDS011;11975;47.674;9.472;2023-06-22T08:09:20;18.23;;;17.23;;
23594;SDS011;11975;47.674;9.472;2023-06-22T08:11:46;18.40;;;17.30;;
23594;SDS011;11975;47.674;9.472;2023-06-22T08:14:12;18.38;;;17.27;;
23594;SDS011;11975;47.674;9.472;2023-06-22T08:16:38;18.13;;;17.02;;
23594;SDS011;11975;47.674;9.472;2023-06-22T08:19:04;17.38;;;16.38;;
23594;SDS011;11975;47.674;9.472;2023-06-22T08:21:30;18.30;;;16.00;;
23594;SDS011;11975;47.674;9.472;2023-06-22T08:23:56;19.10;;;17.80;;
23594;SDS011;11975;47.674;9.472;2023-06-22T08:26:22;18.40;;;17.30;;
23594;SDS011;11975;47.674;9.472;2023-06-22T08:28:49;18.10;;;16.63;;
23594;SDS011;11975;47.674;9.472;2023-06-22T08:31:14;18.02;;;17.02;;
23594;SDS011;11975;47.674;9.472;2023-06-22T08:33:41;17.67;;;16.67;;
23594;SDS011;11975;47.674;9.472;2023-06-22T08:36:08;17.85;;;16.70;;
23594;SDS011;11975;47.674;9.472;2023-06-22T08:38:36;17.77;;;16.73;;
23594;SDS011;11975;47.674;9.472;2023-06-22T08:41:02;18.45;;;17.35;;
23594;SDS011;11975;47.674;9.472;2023-06-22T08:43:28;18.58;;;17.48;;
23594;SDS011;11975;47.674;9.472;2023-06-22T08:45:54;18.90;;;17.73;;
23594;SDS011;11975;47.674;9.472;2023-06-22T08:48:20;17.58;;;16.58;;
23594;SDS011;11975;47.674;9.472;2023-06-22T08:50:46;18.05;;;16.90;;
23594;SDS011;11975;47.674;9.472;2023-06-22T08:53:12;22.27;;;18.00;;
23594;SDS011;11975;47.674;9.472;2023-06-22T08:55:38;18.95;;;17.75;;
23594;SDS011;11975;47.674;9.472;2023-06-22T08:58:04;18.15;;;17.15;;
23594;SDS011;11975;47.674;9.472;2023-06-22T09:00:30;18.23;;;17.13;;
23594;SDS011;11975;47.674;9.472;2023-06-22T09:03:00;18.48;;;17.38;;
23594;SDS011;11975;47.674;9.472;2023-06-22T09:05:26;18.35;;;17.23;;
23594;SDS011;11975;47.674;9.472;2023-06-22T09:07:52;18.67;;;17.58;;
23594;SDS011;11975;47.674;9.472;2023-06-22T09:10:20;18.73;;;17.63;;
23594;SDS011;11975;47.674;9.472;2023-06-22T09:12:46;18.77;;;17.67;;
23594;SDS011;11975;47.674;9.472;2023-06-22T09:15:12;19.17;;;17.92;;
23594;SDS011;11975;47.674;9.472;2023-06-22T09:17:38;18.48;;;17.45;;
23594;SDS011;11975;47.674;9.472;2023-06-22T09:20:04;18.08;;;16.98;;
23594;SDS011;11975;47.674;9.472;2023-06-22T09:22:31;18.92;;;17.73;;
23594;SDS011;11975;47.674;9.472;2023-06-22T09:27:25;18.85;;;17.75;;
23594;SDS011;11975;47.674;9.472;2023-06-22T09:29:51;18.73;;;17.63;;
23594;SDS011;11975;47.674;9.472;2023-06-22T09:32:17;19.50;;;18.40;;
23594;SDS011;11975;47.674;9.472;2023-06-22T09:34:43;17.73;;;16.73;;
23594;SDS011;11975;47.674;9.472;2023-06-22T09:37:09;19.35;;;18.23;;
23594;SDS011;11975;47.674;9.472;2023-06-22T09:39:34;19.20;;;18.08;;
23594;SDS011;11975;47.674;9.472;2023-06-22T09:42:02;18.95;;;17.75;;
23594;SDS011;11975;47.674;9.472;2023-06-22T09:44:28;29.13;;;17.80;;
23594;SDS011;11975;47.674;9.472;2023-06-22T09:46:54;18.50;;;17.40;;
23594;SDS011;11975;47.674;9.472;2023-06-22T09:49:20;18.27;;;17.17;;
23594;SDS011;11975;47.674;9.472;2023-06-22T09:51:46;19.17;;;18.08;;
23594;SDS011;11975;47.674;9.472;2023-06-22T09:54:12;19.85;;;18.25;;
23594;SDS011;11975;47.674;9.472;2023-06-22T09:56:38;19.52;;;18.27;;
23594;SDS011;11975;47.674;9.472;2023-06-22T09:59:03;17.30;;;16.30;;
23594;SDS011;11975;47.674;9.472;2023-06-22T10:01:29;16.95;;;16.00;;
23594;SDS011;11975;47.674;9.472;2023-06-22T10:03:55;18.30;;;16.92;;
23594;SDS011;11975;47.674;9.472;2023-06-22T10:06:22;18.50;;;17.40;;
23594;SDS011;11975;47.674;9.472;2023-06-22T10:08:49;18.48;;;16.98;;
23594;SDS011;11975;47.674;9.472;2023-06-22T10:11:16;18.33;;;17.23;;
23594;SDS011;11975;47.674;9.472;2023-06-22T10:13:42;17.75;;;16.67;;
23594;SDS011;11975;47.674;9.472;2023-06-22T10:16:08;17.13;;;16.15;;
23594;SDS011;11975;47.674;9.472;2023-06-22T10:18:34;18.00;;;16.90;;
23594;SDS011;11975;47.674;9.472;2023-06-22T10:21:00;17.17;;;16.08;;
23594;SDS011;11975;47.674;9.472;2023-06-22T10:23:26;17.98;;;16.88;;
23594;SDS011;11975;47.674;9.472;2023-06-22T10:25:52;17.92;;;16.73;;
23594;SDS011;11975;47.674;9.472;2023-06-22T10:28:18;18.83;;;17.52;;
23594;SDS011;11975;47.674;9.472;2023-06-22T10:30:44;17.98;;;16.95;;
23594;SDS011;11975;47.674;9.472;2023-06-22T10:33:10;16.80;;;15.80;;
23594;SDS011;11975;47.674;9.472;2023-06-22T10:35:37;18.10;;;16.98;;
23594;SDS011;11975;47.674;9.472;2023-06-22T10:42:55;17.50;;;16.48;;
23594;SDS011;11975;47.674;9.472;2023-06-22T10:45:21;18.45;;;17.15;;
23594;SDS011;11975;47.674;9.472;2023-06-22T10:47:47;16.67;;;15.68;;
23594;SDS011;11975;47.674;9.472;2023-06-22T10:50:13;16.90;;;15.90;;
23594;SDS011;11975;47.674;9.472;2023-06-22T10:52:39;16.67;;;15.75;;
23594;SDS011;11975;47.674;9.472;2023-06-22T10:55:07;18.73;;;17.58;;
23594;SDS011;11975;47.674;9.472;2023-06-22T10:57:34;18.27;;;17.17;;
23594;SDS011;11975;47.674;9.472;2023-06-22T11:00:00;18.90;;;17.13;;
23594;SDS011;11975;47.674;9.472;2023-06-22T11:02:26;19.08;;;17.77;;
23594;SDS011;11975;47.674;9.472;2023-06-22T11:04:53;17.20;;;16.02;;
23594;SDS011;11975;47.674;9.472;2023-06-22T11:07:19;17.02;;;15.95;;
23594;SDS011;11975;47.674;9.472;2023-06-22T11:09:45;17.95;;;16.85;;
23594;SDS011;11975;47.674;9.472;2023-06-22T11:12:11;18.88;;;17.67;;
23594;SDS011;11975;47.674;9.472;2023-06-22T11:14:38;19.10;;;17.85;;
23594;SDS011;11975;47.674;9.472;2023-06-22T11:17:04;19.85;;;18.38;;
23594;SDS011;11975;47.674;9.472;2023-06-22T11:19:30;17.55;;;16.45;;
23594;SDS011;11975;47.674;9.472;2023-06-22T11:21:56;18.25;;;17.00;;
23594;SDS011;11975;47.674;9.472;2023-06-22T11:24:22;17.73;;;16.73;;
23594;SDS011;11975;47.674;9.472;2023-06-22T11:26:48;17.05;;;16.05;;
23594;SDS011;11975;47.674;9.472;2023-06-22T11:29:14;17.02;;;16.02;;
23594;SDS011;11975;47.674;9.472;2023-06-22T11:31:40;17.67;;;16.48;;
23594;SDS011;11975;47.674;9.472;2023-06-22T11:34:08;16.73;;;15.73;;
23594;SDS011;11975;47.674;9.472;2023-06-22T11:36:34;17.42;;;16.42;;
23594;SDS011;11975;47.674;9.472;2023-06-22T11:39:01;17.92;;;16.92;;
23594;SDS011;11975;47.674;9.472;2023-06-22T11:41:27;17.38;;;16.38;;
23594;SDS011;11975;47.674;9.472;2023-06-22T11:43:53;17.80;;;16.70;;
23594;SDS011;11975;47.674;9.472;2023-06-22T11:46:18;18.17;;;16.95;;
23594;SDS011;11975;47.674;9.472;2023-06-22T11:48:44;16.48;;;15.48;;
23594;SDS011;11975;47.674;9.472;2023-06-22T11:51:11;16.98;;;16.00;;
23594;SDS011;11975;47.674;9.472;2023-06-22T11:53:37;18.02;;;16.92;;
23594;SDS011;11975;47.674;9.472;2023-06-22T11:56:03;17.95;;;16.85;;
23594;SDS011;11975;47.674;9.472;2023-06-22T11:58:29;17.80;;;16.80;;
23594;SDS011;11975;47.674;9.472;2023-06-22T12:00:55;16.85;;;15.85;;
23594;SDS011;11975;47.674;9.472;2023-06-22T12:03:21;17.33;;;16.23;;
23594;SDS011;11975;47.674;9.472;2023-06-22T12:05:47;17.70;;;16.60;;
23594;SDS011;11975;47.674;9.472;2023-06-22T12:08:13;17.83;;;16.63;;
23594;SDS011;11975;47.674;9.472;2023-06-22T12:10:39;17.65;;;16.55;;
23594;SDS011;11975;47.674;9.472;2023-06-22T12:13:05;18.52;;;17.42;;
23594;SDS011;11975;47.674;9.472;2023-06-22T12:15:31;17.48;;;16.38;;
23594;SDS011;11975;47.674;9.472;2023-06-22T12:17:57;18.38;;;17.27;;
23594;SDS011;11975;47.674;9.472;2023-06-22T12:20:23;17.58;;;16.42;;
23594;SDS011;11975;47.674;9.472;2023-06-22T12:22:49;17.88;;;16.50;;
23594;SDS011;11975;47.674;9.472;2023-06-22T12:25:17;17.95;;;16.85;;
23594;SDS011;11975;47.674;9.472;2023-06-22T12:27:43;18.23;;;17.02;;
23594;SDS011;11975;47.674;9.472;2023-06-22T12:30:09;18.45;;;17.25;;
23594;SDS011;11975;47.674;9.472;2023-06-22T12:32:35;17.58;;;16.48;;
23594;SDS011;11975;47.674;9.472;2023-06-22T12:35:01;17.85;;;16.75;;
23594;SDS011;11975;47.674;9.472;2023-06-22T12:37:27;18.63;;;16.80;;
23594;SDS011;11975;47.674;9.472;2023-06-22T12:39:53;18.40;;;17.20;;
23594;SDS011;11975;47.674;9.472;2023-06-22T12:42:20;18.13;;;17.08;;
23594;SDS011;11975;47.674;9.472;2023-06-22T12:44:46;19.02;;;17.92;;
23594;SDS011;11975;47.674;9.472;2023-06-22T12:47:12;18.13;;;17.02;;
23594;SDS011;11975;47.674;9.472;2023-06-22T12:49:38;19.30;;;18.10;;
23594;SDS011;11975;47.674;9.472;2023-06-22T12:52:10;19.23;;;17.92;;
23594;SDS011;11975;47.674;9.472;2023-06-22T12:54:36;19.15;;;17.65;;
23594;SDS011;11975;47.674;9.472;2023-06-22T12:57:03;17.90;;;16.80;;
23594;SDS011;11975;47.674;9.472;2023-06-22T12:59:29;18.65;;;17.55;;
23594;SDS011;11975;47.674;9.472;2023-06-22T13:01:55;17.75;;;16.75;;
23594;SDS011;11975;47.674;9.472;2023-06-22T13:04:21;18.15;;;17.00;;
23594;SDS011;11975;47.674;9.472;2023-06-22T13:06:47;16.45;;;15.55;;
23594;SDS011;11975;47.674;9.472;2023-06-22T13:09:17;18.05;;;16.95;;
23594;SDS011;11975;47.674;9.472;2023-06-22T13:11:43;18.92;;;17.67;;
23594;SDS011;11975;47.674;9.472;2023-06-22T13:14:09;18.98;;;17.80;;
23594;SDS011;11975;47.674;9.472;2023-06-22T13:16:35;18.67;;;17.48;;
23594;SDS011;11975;47.674;9.472;2023-06-22T13:19:01;18.67;;;17.40;;
23594;SDS011;11975;47.674;9.472;2023-06-22T13:21:27;19.80;;;18.30;;
23594;SDS011;11975;47.674;9.472;2023-06-22T13:23:53;17.65;;;16.65;;
23594;SDS011;11975;47.674;9.472;2023-06-22T13:26:20;19.15;;;17.95;;
23594;SDS011;11975;47.674;9.472;2023-06-22T13:28:46;18.35;;;17.15;;
23594;SDS011;11975;47.674;9.472;2023-06-22T13:31:12;19.85;;;18.30;;
23594;SDS011;11975;47.674;9.472;2023-06-22T13:33:38;18.45;;;17.25;;
23594;SDS011;11975;47.674;9.472;2023-06-22T13:36:06;18.52;;;17.42;;
23594;SDS011;11975;47.674;9.472;2023-06-22T13:38:35;17.75;;;16.75;;
23594;SDS011;11975;47.674;9.472;2023-06-22T13:41:06;18.73;;;17.52;;
23594;SDS011;11975;47.674;9.472;2023-06-22T13:43:32;18.23;;;17.02;;
23594;SDS011;11975;47.674;9.472;2023-06-22T13:45:58;17.50;;;16.50;;
23594;SDS011;11975;47.674;9.472;2023-06-22T13:48:24;17.95;;;16.85;;
23594;SDS011;11975;47.674;9.472;2023-06-22T13:50:51;19.15;;;17.98;;
23594;SDS011;11975;47.674;9.472;2023-06-22T13:53:18;17.23;;;16.23;;
23594;SDS011;11975;47.674;9.472;2023-06-22T13:55:44;18.45;;;17.25;;
23594;SDS011;11975;47.674;9.472;2023-06-22T13:58:10;17.15;;;16.15;;
23594;SDS011;11975;47.674;9.472;2023-06-22T14:00:36;17.92;;;16.42;;
23594;SDS011;11975;47.674;9.472;2023-06-22T14:03:02;17.98;;;16.88;;
23594;SDS011;11975;47.674;9.472;2023-06-22T14:05:28;19.33;;;18.13;;
23594;SDS011;11975;47.674;9.472;2023-06-22T14:07:54;18.45;;;16.90;;
23594;SDS011;11975;47.674;9.472;2023-06-22T14:10:20;18.17;;;17.08;;
23594;SDS011;11975;47.674;9.472;2023-06-22T14:12:46;17.88;;;16.70;;
23594;SDS011;11975;47.674;9.472;2023-06-22T14:15:12;18.73;;;17.40;;
23594;SDS011;11975;47.674;9.472;2023-06-22T14:17:38;17.58;;;16.55;;
23594;SDS011;11975;47.674;9.472;2023-06-22T14:20:04;17.38;;;16.38;;
23594;SDS011;11975;47.674;9.472;2023-06-22T14:22:31;18.25;;;17.08;;
23594;SDS011;11975;47.674;9.472;2023-06-22T14:24:57;18.60;;;17.30;;
23594;SDS011;11975;47.674;9.472;2023-06-22T14:27:24;17.63;;;16.52;;
23594;SDS011;11975;47.674;9.472;2023-06-22T14:29:50;16.88;;;15.75;;
23594;SDS011;11975;47.674;9.472;2023-06-22T14:32:16;20.17;;;18.02;;
23594;SDS011;11975;47.674;9.472;2023-06-22T14:34:42;18.85;;;17.30;;
23594;SDS011;11975;47.674;9.472;2023-06-22T14:39:38;19.15;;;17.75;;
23594;SDS011;11975;47.674;9.472;2023-06-22T14:42:08;19.27;;;17.40;;
23594;SDS011;11975;47.674;9.472;2023-06-22T14:44:34;18.80;;;17.50;;
23594;SDS011;11975;47.674;9.472;2023-06-22T14:49:26;17.90;;;16.85;;
23594;SDS011;11975;47.674;9.472;2023-06-22T14:51:52;19.65;;;17.75;;
23594;SDS011;11975;47.674;9.472;2023-06-22T14:54:18;18.65;;;17.42;;
23594;SDS011;11975;47.674;9.472;2023-06-22T14:56:44;18.45;;;17.35;;